createdAt,value
2022-12-16T00:01:23.304Z,98019.91
2022-12-16T00:06:27.665Z,98763.22
2022-12-16T00:11:32.353Z,98422.69
2022-12-16T00:16:51.337Z,97950.44
2022-12-16T00:21:54.178Z,98297.50
2022-12-16T00:26:57.724Z,98769.31
2022-12-16T00:32:00.565Z,98806.22
2022-12-16T00:37:02.895Z,98746.59
2022-12-16T00:42:05.245Z,98805.47
2022-12-16T00:47:07.568Z,98727.84
2022-12-16T00:52:10.133Z,98809.53
2022-12-16T00:57:12.367Z,98637.53
2022-12-16T01:02:14.973Z,98762.00
2022-12-16T01:07:17.254Z,98844.69
2022-12-16T01:12:19.495Z,98737.88
2022-12-16T01:17:21.728Z,98883.09
2022-12-16T01:22:24.181Z,98731.00
2022-12-16T01:27:27.371Z,98270.56
2022-12-16T01:32:29.862Z,98231.22
2022-12-16T01:37:32.246Z,98744.16
2022-12-16T01:42:34.653Z,98267.13
2022-12-16T01:47:37.228Z,98034.38
2022-12-16T01:52:44.768Z,98511.75
2022-12-16T01:57:59.473Z,98942.72
2022-12-16T02:03:02.062Z,98391.66
2022-12-16T02:08:13.328Z,98615.84
2022-12-16T02:13:33.730Z,98897.81
2022-12-16T02:19:27.679Z,98759.44
2022-12-16T02:24:50.785Z,98285.66
2022-12-16T02:30:14.803Z,98901.44
2022-12-16T02:35:39.498Z,98904.25
2022-12-16T02:40:50.423Z,98628.53
2022-12-16T02:45:54.376Z,98481.69
2022-12-16T02:50:57.972Z,98517.59
2022-12-16T02:56:52.936Z,98617.53
2022-12-16T03:02:01.556Z,98411.03
2022-12-16T03:07:09.484Z,98084.63
2022-12-16T03:12:17.409Z,98473.59
2022-12-16T03:17:21.871Z,98556.41
2022-12-16T03:22:29.671Z,98101.75
2022-12-16T03:27:38.959Z,98061.53
2022-12-16T03:32:49.362Z,98932.16
2022-12-16T03:37:55.776Z,98359.56
2022-12-16T03:42:58.417Z,97990.78
2022-12-16T03:48:07.230Z,98047.97
2022-12-16T03:53:10.052Z,98021.16
2022-12-16T03:58:14.729Z,99018.63
2022-12-16T04:03:17.391Z,98810.53
2022-12-16T04:08:20.194Z,98574.16
2022-12-16T04:13:41.112Z,98829.38
2022-12-16T04:19:05.440Z,99046.47
2022-12-16T04:24:22.793Z,99030.31
2022-12-16T04:29:25.339Z,98663.78
2022-12-16T04:34:30.381Z,98510.59
2022-12-16T04:39:51.154Z,99056.91
2022-12-16T04:45:12.080Z,98285.84
2022-12-16T04:50:33.467Z,98892.19
2022-12-16T04:56:03.608Z,98224.13
2022-12-16T05:01:25.229Z,98398.31
2022-12-16T05:06:46.244Z,99099.75
2022-12-16T05:12:07.448Z,98259.28
2022-12-16T05:17:31.123Z,98642.59
2022-12-16T05:22:52.161Z,98285.00
2022-12-16T05:28:14.572Z,98326.25
2022-12-16T05:33:36.231Z,98272.50
2022-12-16T05:38:57.910Z,98358.72
2022-12-16T05:44:29.285Z,99261.00
2022-12-16T05:49:50.115Z,98444.19
2022-12-16T05:55:11.245Z,99082.31
2022-12-16T06:00:35.320Z,98628.53
2022-12-16T06:06:03.956Z,98360.72
2022-12-16T06:11:25.056Z,98626.59
2022-12-16T06:16:45.916Z,98670.84
2022-12-16T06:22:25.649Z,98748.94
2022-12-16T06:27:53.466Z,98432.69
2022-12-16T06:33:17.847Z,98501.44
2022-12-16T06:38:38.915Z,98877.34
2022-12-16T06:44:07.033Z,98869.94
2022-12-16T06:49:27.727Z,99035.13
2022-12-16T06:54:48.410Z,98755.88
2022-12-16T07:00:09.060Z,99002.84
2022-12-16T07:05:29.831Z,99283.91
2022-12-16T07:10:50.323Z,99413.81
2022-12-16T07:16:10.968Z,99372.03
2022-12-16T07:21:31.926Z,99305.31
2022-12-16T07:26:52.929Z,99405.84
2022-12-16T07:32:13.720Z,99343.94
2022-12-16T07:37:34.492Z,99478.53
2022-12-16T07:42:55.233Z,99446.00
2022-12-16T07:48:18.458Z,98825.81
2022-12-16T07:53:42.587Z,99193.56
2022-12-16T07:59:03.257Z,99322.25
2022-12-16T08:04:23.963Z,99442.63
2022-12-16T08:09:45.108Z,99367.59
2022-12-16T08:15:05.807Z,99444.13
2022-12-16T08:20:27.096Z,99511.53
2022-12-16T08:25:47.872Z,99565.28
2022-12-16T08:31:10.217Z,99547.31
2022-12-16T08:36:30.902Z,99433.84
2022-12-16T08:41:52.181Z,99524.78
2022-12-16T08:47:13.417Z,99574.63
2022-12-16T08:52:34.129Z,99589.06
2022-12-16T08:57:54.779Z,99501.47
2022-12-16T09:03:16.965Z,99497.03
2022-12-16T09:08:38.055Z,99616.28
2022-12-16T09:14:03.906Z,98690.34
2022-12-16T09:19:24.990Z,99251.56
2022-12-16T09:24:46.882Z,99055.38
2022-12-16T09:30:08.835Z,99048.69
2022-12-16T09:35:33.159Z,99139.75
2022-12-16T09:41:00.430Z,98938.34
2022-12-16T09:46:35.264Z,99406.84
2022-12-16T09:51:59.661Z,98942.78
2022-12-16T09:57:25.499Z,98825.50
2022-12-16T10:08:41.864Z,99728.84
2022-12-16T10:27:23.780Z,99752.09
2022-12-16T10:33:06.847Z,99274.19
2022-12-16T10:38:56.184Z,99784.69
2022-12-16T10:44:18.179Z,99252.63
2022-12-16T10:49:42.010Z,99072.09
2022-12-16T10:55:14.055Z,99652.38
2022-12-16T11:00:38.861Z,99348.41
2022-12-16T11:06:04.883Z,99096.22
2022-12-16T11:11:39.756Z,98952.47
2022-12-16T11:23:31.764Z,99016.16
2022-12-16T11:29:02.607Z,99869.72
2022-12-16T11:34:30.811Z,99428.03
2022-12-16T11:39:56.086Z,99963.34
2022-12-16T11:45:25.536Z,99037.06
2022-12-16T11:57:19.007Z,98989.78
2022-12-16T12:03:01.868Z,99932.81
2022-12-16T12:08:39.510Z,99046.00
2022-12-16T12:14:24.688Z,99954.59
2022-12-16T12:20:09.133Z,99843.31
2022-12-16T12:25:44.698Z,99409.34
2022-12-16T12:31:36.412Z,99907.88
2022-12-16T12:37:06.023Z,99591.63
2022-12-16T12:42:45.727Z,99978.78
2022-12-16T12:48:17.106Z,99132.53
2022-12-16T13:00:14.594Z,99429.06
2022-12-16T13:05:36.155Z,99504.25
2022-12-16T13:16:40.626Z,100009.47
2022-12-16T13:22:05.974Z,99047.81
2022-12-16T13:27:46.150Z,99270.97
2022-12-16T13:33:22.571Z,99652.75
2022-12-16T13:51:19.101Z,99668.63
2022-12-16T13:57:08.076Z,99622.84
2022-12-16T14:02:46.025Z,100083.59
2022-12-16T14:08:25.481Z,99034.97
2022-12-16T14:14:08.138Z,100104.44
2022-12-16T14:19:44.044Z,100104.72
2022-12-16T14:25:04.828Z,100056.09
2022-12-16T14:30:44.904Z,100072.16
2022-12-16T14:36:08.698Z,100122.47
2022-12-16T14:41:31.370Z,100130.03
2022-12-16T14:46:52.125Z,100087.81
2022-12-16T14:52:12.868Z,100096.16
2022-12-16T14:57:38.244Z,100098.59
2022-12-16T15:03:03.099Z,99988.34
2022-12-16T15:08:24.482Z,100121.31
2022-12-16T15:13:45.289Z,100088.50
2022-12-16T15:19:13.173Z,100163.59
2022-12-16T15:24:39.517Z,100094.63
2022-12-16T15:30:02.199Z,100129.00
2022-12-16T15:35:24.880Z,100114.69
2022-12-16T15:40:51.219Z,100155.88
2022-12-16T15:46:11.925Z,100127.88
2022-12-16T15:52:06.187Z,100136.88
2022-12-16T15:57:52.861Z,100176.22
2022-12-16T16:03:13.670Z,100120.91
2022-12-16T16:08:34.413Z,100129.88
2022-12-16T16:14:00.604Z,100120.34
2022-12-16T16:19:31.517Z,100140.09
2022-12-16T16:24:52.328Z,100150.97
2022-12-16T16:30:13.092Z,100109.03
2022-12-16T16:35:33.879Z,100138.91
2022-12-16T16:41:00.909Z,100166.59
2022-12-16T16:46:42.129Z,100140.53
2022-12-16T16:52:03.502Z,100147.31
2022-12-16T16:57:27.417Z,100153.19
2022-12-16T17:02:48.610Z,100118.34
2022-12-16T17:08:09.826Z,100024.69
2022-12-16T17:13:30.826Z,100185.13
2022-12-16T17:18:52.646Z,100125.69
2022-12-16T17:24:13.562Z,100119.69
2022-12-16T17:29:40.456Z,100132.13
2022-12-16T17:35:07.228Z,100150.66
2022-12-16T17:40:28.432Z,100130.81
2022-12-16T17:45:51.552Z,100101.63
2022-12-16T17:51:12.234Z,100094.88
2022-12-16T17:56:33.105Z,100145.44
2022-12-16T18:01:53.743Z,100159.63
2022-12-16T18:07:14.531Z,100170.59
2022-12-16T18:12:35.572Z,100216.31
2022-12-16T18:17:56.274Z,100141.75
2022-12-16T18:23:16.992Z,100135.13
2022-12-16T18:28:37.823Z,100194.47
2022-12-16T18:34:01.644Z,100137.66
2022-12-16T18:39:22.906Z,100154.94
2022-12-16T18:44:43.744Z,100104.72
2022-12-16T18:50:04.547Z,100151.06
2022-12-16T18:55:28.026Z,100157.31
2022-12-16T19:00:51.755Z,100163.41
2022-12-16T19:06:13.955Z,100200.47
2022-12-16T19:11:40.633Z,100178.06
2022-12-16T19:17:01.437Z,100165.28
2022-12-16T19:22:22.076Z,100211.75
2022-12-16T19:27:42.909Z,100243.16
2022-12-16T19:33:11.827Z,100176.03
2022-12-16T19:38:44.243Z,100253.16
2022-12-16T19:49:46.319Z,100221.06
2022-12-16T19:55:15.598Z,100273.66
2022-12-16T20:00:37.867Z,100325.53
2022-12-16T20:05:58.608Z,100268.13
2022-12-16T20:11:26.547Z,100256.91
2022-12-16T20:16:47.528Z,100256.81
2022-12-16T20:22:11.847Z,100316.66
2022-12-16T20:27:49.665Z,100279.97
2022-12-16T20:33:10.419Z,100285.84
2022-12-16T20:38:31.360Z,100259.66
2022-12-16T20:43:51.938Z,100238.38
2022-12-16T20:49:12.574Z,100248.34
2022-12-16T20:54:33.221Z,100237.63
2022-12-16T20:59:54.350Z,100247.03
2022-12-16T21:05:17.073Z,100231.06
2022-12-16T21:10:38.127Z,100238.38
2022-12-16T21:15:58.766Z,100194.97
2022-12-16T21:21:19.389Z,100190.31
2022-12-16T21:26:40.200Z,100273.13
2022-12-16T21:32:00.761Z,100249.41
2022-12-16T21:37:21.432Z,100205.41
2022-12-16T21:42:44.983Z,100208.84
2022-12-16T21:48:05.624Z,100220.19
2022-12-16T21:53:26.804Z,100205.09
2022-12-16T21:58:47.581Z,100234.88
2022-12-16T22:04:08.418Z,100166.06
2022-12-16T22:09:30.227Z,100192.56
2022-12-16T22:14:50.845Z,100170.03
2022-12-16T22:20:12.328Z,100198.56
2022-12-16T22:25:33.059Z,100220.56
2022-12-16T22:30:53.608Z,100137.88
2022-12-16T22:36:29.730Z,100205.44
2022-12-16T22:41:53.134Z,100197.66
2022-12-16T22:47:14.031Z,100227.53
2022-12-16T22:52:34.917Z,100224.41
2022-12-16T22:57:55.632Z,100220.00
2022-12-16T23:03:17.595Z,100201.31
2022-12-16T23:08:38.310Z,100211.00
2022-12-16T23:13:58.963Z,100225.66
2022-12-16T23:19:19.866Z,100187.91
2022-12-16T23:24:41.442Z,100184.03
2022-12-16T23:30:02.283Z,100204.34
2022-12-16T23:32:29.909Z,100274.59
2022-12-16T23:35:24.270Z,100112.38
2022-12-16T23:40:45.128Z,100212.44
2022-12-16T23:46:05.851Z,100199.34
2022-12-16T23:51:26.662Z,100171.47
2022-12-16T23:56:47.198Z,100196.13
